Time;durP1;ratioP1;P1;durP2;ratioP2;P2;SDS_P1;SDS_P2;PMS_P1;PMS_P2;Temp;Humidity;BMP_temperature;BMP_pressure;BME280_temperature;BME280_humidity;BME280_pressure;Samples;Min_cycle;Max_cycle;Signal;HPM_P1;HPM_P2
2022/08/06 00:01:03;;;;;;;2.40;2.00;;;20.70;99.90;;;;;;5083401;28;20174;-45
2022/08/06 00:03:29;;;;;;;2.17;1.75;;;20.60;99.90;;;;;;5083675;28;20328;-46
2022/08/06 00:05:54;;;;;;;2.55;1.95;;;20.60;99.90;;;;;;5066685;28;20189;-45
2022/08/06 00:08:20;;;;;;;2.40;1.90;;;20.70;99.90;;;;;;5083363;28;20255;-46
2022/08/06 00:10:46;;;;;;;2.55;1.98;;;20.70;99.90;;;;;;5066307;28;20189;-45
2022/08/06 00:13:12;;;;;;;1.88;1.77;;;20.70;99.90;;;;;;5051218;28;20170;-46
2022/08/06 00:15:38;;;;;;;2.13;1.92;;;20.80;99.90;;;;;;5066643;28;20194;-45
2022/08/06 00:18:04;;;;;;;1.80;1.70;;;20.80;99.90;;;;;;5066354;28;20211;-46
2022/08/06 00:20:29;;;;;;;2.47;1.70;;;20.90;99.90;;;;;;5083044;28;20185;-45
2022/08/06 00:22:55;;;;;;;1.80;1.70;;;20.90;99.90;;;;;;5066788;28;20210;-45
2022/08/06 00:25:21;;;;;;;1.90;1.55;;;20.90;99.90;;;;;;5066850;28;20189;-45
2022/08/06 00:27:47;;;;;;;2.13;1.63;;;20.90;99.90;;;;;;5082940;28;20198;-45
2022/08/06 00:30:13;;;;;;;3.80;1.95;;;20.90;99.90;;;;;;5083143;28;20181;-45
2022/08/06 00:32:39;;;;;;;1.92;1.60;;;20.90;99.90;;;;;;5083326;28;20257;-45
2022/08/06 00:35:05;;;;;;;2.00;1.80;;;20.90;99.90;;;;;;5083252;28;20217;-45
2022/08/06 00:37:32;;;;;;;2.50;1.85;;;20.90;99.90;;;;;;5065900;28;20181;-46
2022/08/06 00:40:01;;;;;;;4.00;1.77;;;20.90;99.90;;;;;;5065752;28;20328;-46
2022/08/06 00:42:28;;;;;;;2.10;1.80;;;20.90;99.90;;;;;;5065994;28;20275;-46
2022/08/06 00:44:54;;;;;;;2.17;1.98;;;20.80;99.90;;;;;;5066373;28;20266;-46
2022/08/06 00:47:20;;;;;;;2.88;1.55;;;20.80;99.90;;;;;;5050679;28;20166;-46
2022/08/06 00:49:46;;;;;;;2.40;1.60;;;20.80;99.90;;;;;;5066034;28;20180;-45
2022/08/06 00:52:12;;;;;;;2.42;1.73;;;20.70;99.90;;;;;;5065622;28;20272;-45
2022/08/06 00:54:38;;;;;;;4.53;1.95;;;20.50;99.90;;;;;;5066201;28;20212;-46
2022/08/06 00:57:05;;;;;;;2.40;1.85;;;20.50;99.90;;;;;;5066259;28;20182;-45
2022/08/06 00:59:31;;;;;;;1.63;1.50;;;20.60;99.90;;;;;;5069936;28;20209;-45
2022/08/06 01:01:56;;;;;;;1.90;1.80;;;20.60;99.90;;;;;;5086793;28;20217;-46
2022/08/06 01:04:22;;;;;;;2.80;1.65;;;20.70;99.90;;;;;;5055386;28;20181;-45
2022/08/06 01:06:48;;;;;;;1.90;1.80;;;20.70;99.90;;;;;;5069750;28;20261;-45
2022/08/06 01:09:14;;;;;;;2.95;1.58;;;20.70;99.90;;;;;;5069623;28;20288;-45
2022/08/06 01:11:40;;;;;;;1.90;1.70;;;20.70;99.90;;;;;;5069624;28;20189;-46
2022/08/06 01:14:07;;;;;;;5.22;2.00;;;20.60;99.90;;;;;;5069749;28;20186;-45
2022/08/06 01:16:39;;;;;;;1.95;1.75;;;20.60;99.90;;;;;;5086749;28;20184;-46
2022/08/06 01:19:23;;;;;;;2.03;1.80;;;20.50;99.90;;;;;;5054332;28;20204;-46
2022/08/06 01:22:08;;;;;;;3.38;1.70;;;20.50;99.90;;;;;;5069176;28;20220;-45
2022/08/06 01:24:49;;;;;;;1.98;1.70;;;20.50;99.90;;;;;;5054729;28;20177;-46
2022/08/06 01:27:42;;;;;;;2.35;1.70;;;20.50;99.90;;;;;;5069809;28;20197;-46
2022/08/06 01:30:15;;;;;;;2.08;1.90;;;20.40;99.90;;;;;;5069473;28;20202;-45
2022/08/06 01:32:52;;;;;;;2.67;2.00;;;20.40;99.90;;;;;;5069644;28;20174;-45
2022/08/06 01:35:26;;;;;;;4.50;1.80;;;20.30;99.90;;;;;;5086589;28;20185;-46
2022/08/06 01:38:02;;;;;;;1.95;1.70;;;20.40;99.90;;;;;;5053907;28;20208;-45
2022/08/06 01:40:31;;;;;;;2.75;1.65;;;20.20;99.90;;;;;;5085958;28;20185;-46
2022/08/06 01:42:58;;;;;;;2.58;1.73;;;20.10;99.90;;;;;;5086493;28;20202;-45
2022/08/06 01:45:29;;;;;;;2.22;1.45;;;20.00;99.90;;;;;;5086211;28;20186;-45
2022/08/06 01:48:00;;;;;;;3.80;1.90;;;20.00;99.90;;;;;;5086228;28;20202;-45
2022/08/06 01:50:31;;;;;;;1.88;1.67;;;19.90;99.90;;;;;;5068709;28;20178;-45
2022/08/06 01:53:00;;;;;;;2.28;1.70;;;19.90;99.90;;;;;;5068942;28;20247;-45
2022/08/06 01:55:30;;;;;;;1.85;1.73;;;19.90;99.90;;;;;;5086145;28;20182;-45
2022/08/06 01:57:59;;;;;;;1.60;1.50;;;20.00;99.90;;;;;;5086104;28;20202;-45
2022/08/06 02:00:25;;;;;;;2.17;1.90;;;20.00;99.90;;;;;;5068751;28;20239;-45
2022/08/06 02:02:53;;;;;;;1.85;1.70;;;20.00;99.90;;;;;;5053585;28;20197;-45
2022/08/06 02:05:21;;;;;;;2.70;1.45;;;20.00;99.90;;;;;;5068893;28;20181;-45
2022/08/06 02:07:50;;;;;;;2.17;1.55;;;20.10;99.90;;;;;;5085654;28;20197;-46
2022/08/06 02:10:18;;;;;;;2.40;1.60;;;20.10;99.90;;;;;;5084531;28;20217;-46
2022/08/06 02:12:47;;;;;;;3.40;1.50;;;20.20;99.90;;;;;;5068801;28;20208;-45
2022/08/06 02:15:34;;;;;;;2.45;1.63;;;20.10;99.90;;;;;;5068857;28;20235;-46
2022/08/06 02:18:04;;;;;;;2.67;1.65;;;20.20;99.90;;;;;;5085636;28;20259;-46
2022/08/06 02:20:40;;;;;;;2.17;1.40;;;20.30;99.90;;;;;;5085581;28;20171;-45
2022/08/06 02:23:09;;;;;;;2.78;1.58;;;20.30;99.90;;;;;;5085517;28;20213;-46
2022/08/06 02:25:41;;;;;;;2.20;1.65;;;20.20;99.90;;;;;;5068514;28;20185;-46
2022/08/06 02:28:08;;;;;;;5.88;1.95;;;20.20;99.90;;;;;;5068235;28;20201;-45
2022/08/06 02:30:38;;;;;;;1.45;1.35;;;20.20;99.90;;;;;;5068163;28;20181;-45
2022/08/06 02:33:05;;;;;;;3.10;1.60;;;20.20;99.90;;;;;;5085458;28;20236;-45
2022/08/06 02:35:36;;;;;;;3.90;1.50;;;20.10;99.90;;;;;;5068509;28;20189;-46
2022/08/06 02:38:08;;;;;;;3.55;1.60;;;20.10;99.90;;;;;;5068318;28;20269;-46
2022/08/06 02:40:43;;;;;;;2.35;1.70;;;20.00;99.90;;;;;;5067797;28;20220;-46
2022/08/06 02:43:13;;;;;;;4.28;1.83;;;20.00;99.90;;;;;;5085265;28;20213;-45
2022/08/06 02:45:57;;;;;;;2.95;1.60;;;20.00;99.90;;;;;;5068228;28;20185;-45
2022/08/06 02:48:32;;;;;;;2.22;1.70;;;20.00;99.90;;;;;;5084972;28;20200;-45
2022/08/06 02:51:01;;;;;;;3.00;1.60;;;20.00;99.90;;;;;;5067554;28;20271;-46
2022/08/06 02:53:39;;;;;;;2.97;1.58;;;19.90;99.90;;;;;;5084790;28;20196;-46
2022/08/06 02:56:13;;;;;;;3.17;1.67;;;19.90;99.90;;;;;;5068302;28;20190;-45
2022/08/06 02:58:45;;;;;;;2.53;1.45;;;19.90;99.90;;;;;;5068010;28;20218;-45
2022/08/06 03:01:18;;;;;;;3.83;1.70;;;19.90;99.90;;;;;;5066985;28;20177;-46
2022/08/06 03:03:46;;;;;;;2.15;1.67;;;19.80;99.90;;;;;;5067775;28;20170;-45
2022/08/06 03:06:15;;;;;;;1.45;1.35;;;19.90;99.90;;;;;;5067668;28;20188;-46
2022/08/06 03:08:42;;;;;;;3.50;1.70;;;19.90;99.90;;;;;;5067652;28;20198;-45
2022/08/06 03:11:10;;;;;;;2.67;1.70;;;19.90;99.90;;;;;;5067403;28;20681;-45
2022/08/06 03:13:37;;;;;;;3.92;1.50;;;19.80;99.90;;;;;;5067609;28;20178;-45
2022/08/06 03:16:06;;;;;;;2.50;1.60;;;19.80;99.90;;;;;;5084522;28;20178;-45
2022/08/06 03:18:33;;;;;;;3.28;1.50;;;19.80;99.90;;;;;;5067433;28;20190;-45
2022/08/06 03:21:01;;;;;;;1.55;1.27;;;19.80;99.90;;;;;;5083333;28;20193;-45
2022/08/06 03:23:29;;;;;;;2.97;1.30;;;19.80;99.90;;;;;;5067176;28;20209;-46
2022/08/06 03:25:57;;;;;;;2.17;1.60;;;19.70;99.90;;;;;;5084366;28;20194;-46
2022/08/06 03:28:25;;;;;;;2.55;1.40;;;19.70;99.90;;;;;;5067039;28;20204;-46
2022/08/06 03:30:52;;;;;;;3.33;1.48;;;19.70;99.90;;;;;;5051709;28;20166;-46
2022/08/06 03:33:19;;;;;;;2.25;1.95;;;19.50;99.90;;;;;;5067293;28;20259;-45
2022/08/06 03:35:46;;;;;;;2.40;1.50;;;19.50;99.90;;;;;;5084209;28;20183;-46
2022/08/06 03:38:13;;;;;;;3.17;1.70;;;19.30;99.90;;;;;;5067327;28;20202;-45
2022/08/06 03:40:43;;;;;;;1.58;1.48;;;19.30;99.90;;;;;;5083758;28;20169;-46
2022/08/06 03:43:09;;;;;;;3.08;1.75;;;19.30;99.90;;;;;;5051762;28;20267;-45
2022/08/06 03:45:37;;;;;;;1.98;1.77;;;19.30;99.90;;;;;;5066901;28;20192;-46
2022/08/06 03:48:05;;;;;;;1.50;1.40;;;19.10;99.90;;;;;;5067127;28;20335;-46
2022/08/06 03:50:36;;;;;;;1.77;1.60;;;19.10;99.90;;;;;;5083555;28;20186;-46
2022/08/06 03:53:08;;;;;;;1.40;1.30;;;19.10;99.90;;;;;;5066957;28;20193;-45
2022/08/06 03:55:37;;;;;;;2.70;1.60;;;19.10;99.90;;;;;;5051267;28;20181;-45
2022/08/06 03:58:09;;;;;;;1.80;1.67;;;19.10;99.90;;;;;;5066660;28;20201;-45
2022/08/06 04:00:40;;;;;;;2.35;1.77;;;19.10;99.90;;;;;;5083512;28;20189;-46
2022/08/06 04:03:08;;;;;;;3.92;1.75;;;19.00;99.90;;;;;;5083418;28;20231;-45
2022/08/06 04:05:36;;;;;;;3.30;1.80;;;19.00;99.90;;;;;;5051627;28;20185;-46
2022/08/06 04:08:04;;;;;;;1.73;1.30;;;19.10;99.90;;;;;;5066303;28;20197;-46
2022/08/06 04:10:37;;;;;;;3.35;1.83;;;19.10;99.90;;;;;;5066507;28;20212;-45
2022/08/06 04:13:09;;;;;;;3.17;1.58;;;19.10;99.90;;;;;;5066593;28;20204;-45
2022/08/06 04:15:36;;;;;;;1.95;1.70;;;19.10;99.90;;;;;;5051398;28;20166;-46
2022/08/06 04:18:04;;;;;;;1.75;1.63;;;19.10;99.90;;;;;;5066514;28;20209;-46
2022/08/06 04:20:32;;;;;;;3.50;1.80;;;19.10;99.90;;;;;;5065749;28;20181;-46
2022/08/06 04:22:58;;;;;;;1.48;1.33;;;19.20;99.90;;;;;;5066199;28;20310;-45
2022/08/06 04:25:27;;;;;;;2.08;1.58;;;19.20;99.90;;;;;;5083237;28;20232;-46
2022/08/06 04:27:55;;;;;;;2.40;1.60;;;19.30;99.90;;;;;;5051142;28;20189;-46
2022/08/06 04:30:26;;;;;;;2.10;1.65;;;19.20;99.90;;;;;;5066199;28;20261;-46
2022/08/06 04:32:53;;;;;;;3.00;1.33;;;19.20;99.90;;;;;;5065913;28;20186;-45
2022/08/06 04:35:20;;;;;;;3.00;1.65;;;19.10;99.90;;;;;;5083101;28;20177;-46
2022/08/06 04:37:47;;;;;;;2.72;1.50;;;19.10;99.90;;;;;;5082947;28;20673;-46
2022/08/06 04:40:13;;;;;;;2.67;1.67;;;18.90;99.90;;;;;;5083030;28;20238;-45
2022/08/06 04:42:40;;;;;;;1.90;1.67;;;18.90;99.90;;;;;;5066243;28;20236;-46
2022/08/06 04:45:08;;;;;;;2.97;1.75;;;18.90;99.90;;;;;;5082883;28;20276;-45
2022/08/06 04:47:35;;;;;;;2.90;1.70;;;18.90;99.90;;;;;;5065755;28;20182;-46
2022/08/06 04:50:02;;;;;;;3.47;1.70;;;18.90;99.90;;;;;;5082508;28;20260;-45
2022/08/06 04:52:29;;;;;;;1.80;1.70;;;18.90;99.90;;;;;;5083118;28;20208;-45
2022/08/06 04:54:54;;;;;;;1.70;1.50;;;18.80;99.90;;;;;;5066112;28;20188;-46
2022/08/06 04:57:20;;;;;;;2.63;1.90;;;18.80;99.90;;;;;;5065981;28;20188;-45
2022/08/06 04:59:46;;;;;;;2.45;1.70;;;18.80;99.90;;;;;;5065994;28;20215;-45
2022/08/06 05:02:12;;;;;;;1.92;1.52;;;18.70;99.90;;;;;;5065424;28;20213;-45
2022/08/06 05:04:39;;;;;;;2.15;1.75;;;18.70;99.90;;;;;;5082988;28;20189;-45
2022/08/06 05:07:24;;;;;;;3.65;1.75;;;18.80;99.90;;;;;;5082852;28;20189;-45
2022/08/06 05:09:51;;;;;;;2.00;1.70;;;18.70;99.90;;;;;;5082770;28;20327;-46
2022/08/06 05:12:46;;;;;;;2.42;1.90;;;18.80;99.90;;;;;;5065845;28;20669;-46
2022/08/06 05:15:23;;;;;;;2.40;1.77;;;18.80;99.90;;;;;;5050063;28;20197;-46
2022/08/06 05:18:19;;;;;;;3.20;1.70;;;18.90;99.90;;;;;;5065933;28;20209;-46
2022/08/06 05:20:49;;;;;;;2.17;1.60;;;19.00;99.90;;;;;;5065593;28;20182;-45
2022/08/06 05:23:24;;;;;;;2.10;1.50;;;19.10;99.90;;;;;;5082483;28;20220;-45
2022/08/06 05:25:50;;;;;;;2.88;1.60;;;19.10;99.90;;;;;;5082909;28;20177;-45
2022/08/06 05:28:16;;;;;;;2.28;1.70;;;19.30;99.90;;;;;;5065729;28;20202;-45
2022/08/06 05:30:47;;;;;;;3.80;1.60;;;19.30;99.90;;;;;;5065803;28;20185;-45
2022/08/06 05:33:23;;;;;;;2.65;1.77;;;19.30;99.90;;;;;;5082702;28;20218;-45
2022/08/06 05:35:49;;;;;;;2.72;1.63;;;19.40;99.90;;;;;;5065665;28;20177;-45
2022/08/06 05:38:15;;;;;;;2.65;1.60;;;19.40;99.90;;;;;;5065542;28;20262;-45
2022/08/06 05:40:41;;;;;;;3.10;1.60;;;19.40;99.90;;;;;;5065449;28;20208;-45
2022/08/06 05:43:06;;;;;;;2.00;1.63;;;19.50;99.90;;;;;;5065790;28;20217;-45
2022/08/06 05:45:34;;;;;;;2.97;1.65;;;19.50;99.90;;;;;;5067636;28;20178;-45
2022/08/06 05:48:03;;;;;;;3.30;1.70;;;19.50;99.90;;;;;;5085859;28;20193;-45
2022/08/06 05:50:34;;;;;;;2.70;1.73;;;19.60;99.90;;;;;;5068971;28;20178;-45
2022/08/06 05:53:06;;;;;;;2.25;1.55;;;19.60;99.90;;;;;;5069435;28;20185;-45
2022/08/06 05:55:43;;;;;;;2.20;1.88;;;19.60;99.90;;;;;;5053794;28;20190;-45
2022/08/06 05:58:23;;;;;;;1.58;1.48;;;19.60;99.90;;;;;;5086244;28;20251;-45
2022/08/06 06:00:51;;;;;;;2.50;1.58;;;19.70;99.90;;;;;;5085627;28;20268;-45
2022/08/06 06:03:19;;;;;;;1.73;1.40;;;19.80;99.90;;;;;;5068925;28;20296;-45
2022/08/06 06:05:45;;;;;;;2.10;1.77;;;19.80;99.90;;;;;;5068890;28;20189;-45
2022/08/06 06:08:11;;;;;;;1.85;1.60;;;20.00;99.90;;;;;;5069097;28;20245;-46
2022/08/06 06:10:40;;;;;;;5.03;1.95;;;20.00;99.90;;;;;;5068741;28;20228;-45
2022/08/06 06:13:07;;;;;;;3.33;1.50;;;20.00;99.90;;;;;;5085416;28;20205;-45
2022/08/06 06:15:41;;;;;;;2.08;1.48;;;20.00;99.90;;;;;;5068558;28;20189;-45
2022/08/06 06:18:30;;;;;;;2.00;1.75;;;20.00;99.90;;;;;;5068712;28;20200;-45
2022/08/06 06:21:34;;;;;;;4.05;1.90;;;20.00;99.90;;;;;;5068341;28;20190;-45
2022/08/06 06:24:17;;;;;;;2.45;1.75;;;19.90;99.90;;;;;;5069379;28;20189;-45
2022/08/06 06:26:52;;;;;;;1.90;1.70;;;19.90;99.90;;;;;;5068977;28;20182;-45
2022/08/06 06:29:20;;;;;;;2.47;1.67;;;19.90;99.90;;;;;;5068528;28;20197;-45
2022/08/06 06:32:18;;;;;;;2.58;1.60;;;19.80;99.90;;;;;;5052652;28;20227;-45
2022/08/06 06:34:59;;;;;;;3.20;1.75;;;19.80;99.90;;;;;;5068355;28;20182;-45
2022/08/06 06:37:58;;;;;;;2.85;1.80;;;19.80;99.90;;;;;;5068418;28;20184;-45
2022/08/06 06:40:35;;;;;;;3.63;1.67;;;19.90;99.90;;;;;;5024846;28;20244;-45
2022/08/06 06:43:34;;;;;;;3.13;1.90;;;20.00;99.90;;;;;;5068128;28;20210;-45
2022/08/06 06:46:10;;;;;;;2.38;1.85;;;20.00;99.90;;;;;;5085040;28;20185;-45
2022/08/06 06:48:54;;;;;;;2.20;1.55;;;20.00;99.90;;;;;;5052591;28;20196;-45
2022/08/06 06:51:42;;;;;;;4.60;2.33;;;20.00;99.90;;;;;;5067471;28;20192;-45
2022/08/06 06:54:17;;;;;;;3.75;1.88;;;20.10;99.90;;;;;;5068128;28;20242;-45
2022/08/06 06:56:46;;;;;;;4.10;1.80;;;20.20;99.90;;;;;;5067561;28;20177;-45
2022/08/06 06:59:16;;;;;;;2.00;1.83;;;20.30;99.90;;;;;;5067766;28;20206;-45
2022/08/06 07:01:47;;;;;;;2.13;1.90;;;20.40;99.90;;;;;;5084595;28;20210;-45
2022/08/06 07:04:16;;;;;;;3.83;2.03;;;20.40;99.90;;;;;;5085022;28;20312;-45
2022/08/06 07:06:46;;;;;;;3.60;1.92;;;20.40;99.90;;;;;;5067555;28;20201;-45
2022/08/06 07:09:23;;;;;;;3.28;2.00;;;20.50;99.90;;;;;;5067769;28;20194;-45
2022/08/06 07:11:51;;;;;;;2.67;1.88;;;20.50;99.90;;;;;;5067174;28;20189;-45
2022/08/06 07:14:19;;;;;;;2.60;1.63;;;20.50;99.90;;;;;;5084427;28;20230;-45
2022/08/06 07:16:45;;;;;;;4.03;1.98;;;20.60;99.90;;;;;;5067821;28;20186;-45
2022/08/06 07:19:12;;;;;;;2.63;1.70;;;20.70;99.90;;;;;;5052267;28;20204;-45
2022/08/06 07:21:40;;;;;;;3.05;1.90;;;20.70;99.90;;;;;;5066752;28;20201;-45
2022/08/06 07:24:07;;;;;;;5.28;1.90;;;20.70;99.90;;;;;;5084265;28;20174;-46
2022/08/06 07:26:35;;;;;;;2.67;1.85;;;20.80;99.90;;;;;;5067390;28;20263;-45
2022/08/06 07:29:02;;;;;;;3.30;2.10;;;21.00;99.90;;;;;;5066972;28;20281;-45
2022/08/06 07:31:29;;;;;;;2.28;1.95;;;21.20;99.90;;;;;;5067071;28;20174;-46
2022/08/06 07:33:56;;;;;;;4.13;1.75;;;21.20;99.90;;;;;;5067324;28;20186;-46
2022/08/06 07:36:24;;;;;;;2.42;1.85;;;21.10;99.90;;;;;;5083827;28;20174;-46
2022/08/06 07:38:52;;;;;;;2.63;1.80;;;21.10;99.90;;;;;;5067021;28;20194;-45
2022/08/06 07:41:20;;;;;;;2.30;1.80;;;21.20;99.90;;;;;;5083835;28;20228;-46
2022/08/06 07:43:52;;;;;;;4.00;2.03;;;21.30;99.90;;;;;;5067163;28;20185;-45
2022/08/06 07:46:22;;;;;;;3.33;1.80;;;21.40;99.90;;;;;;5067373;28;20265;-45
2022/08/06 07:48:57;;;;;;;2.05;1.85;;;21.60;99.90;;;;;;5066736;28;20216;-46
2022/08/06 07:51:27;;;;;;;2.50;1.90;;;21.70;99.90;;;;;;5049982;28;20176;-45
2022/08/06 07:53:54;;;;;;;2.22;1.70;;;21.90;99.90;;;;;;5066830;28;20186;-46
2022/08/06 07:56:21;;;;;;;3.00;2.30;;;21.90;99.90;;;;;;5051750;28;20328;-46
2022/08/06 07:58:48;;;;;;;2.33;1.60;;;21.80;99.90;;;;;;5066534;28;20204;-46
2022/08/06 08:01:14;;;;;;;3.15;2.08;;;21.70;99.90;;;;;;5083505;28;20173;-45
2022/08/06 08:06:28;;;;;;;2.35;1.98;;;21.70;99.90;;;;;;5083608;28;20193;-46
2022/08/06 08:08:59;;;;;;;5.43;2.28;;;21.70;99.90;;;;;;5065990;28;20776;-45
2022/08/06 08:11:25;;;;;;;3.75;1.90;;;21.70;99.90;;;;;;5083308;28;20186;-46
2022/08/06 08:13:54;;;;;;;2.03;1.70;;;21.70;99.90;;;;;;5083245;28;20182;-46
2022/08/06 08:16:20;;;;;;;3.33;1.88;;;21.70;99.90;;;;;;5083410;28;20162;-46
2022/08/06 08:18:46;;;;;;;3.08;2.20;;;21.70;99.90;;;;;;5066366;28;20216;-45
2022/08/06 08:21:13;;;;;;;3.10;2.22;;;21.70;99.90;;;;;;5083134;28;20272;-46
2022/08/06 08:23:41;;;;;;;2.50;1.73;;;21.70;99.90;;;;;;5083325;28;20220;-46
2022/08/06 08:26:07;;;;;;;2.95;2.17;;;22.00;99.90;;;;;;5083325;28;20189;-46
2022/08/06 08:28:33;;;;;;;2.05;1.80;;;22.10;99.90;;;;;;5083010;28;20202;-46
2022/08/06 08:31:03;;;;;;;3.33;1.90;;;22.00;99.90;;;;;;5083063;28;20177;-46
2022/08/06 08:33:29;;;;;;;3.70;2.25;;;21.80;99.90;;;;;;5066287;28;20216;-46
2022/08/06 08:35:55;;;;;;;3.10;1.95;;;21.80;99.90;;;;;;5066367;28;20178;-46
2022/08/06 08:38:21;;;;;;;2.85;2.00;;;21.70;99.90;;;;;;5083176;28;20205;-46
2022/08/06 08:40:53;;;;;;;2.08;1.77;;;21.70;99.90;;;;;;5082831;28;20170;-45
2022/08/06 08:43:44;;;;;;;2.90;1.70;;;21.60;99.90;;;;;;5083075;28;20209;-46
2022/08/06 08:46:11;;;;;;;2.85;1.92;;;21.60;99.90;;;;;;5023677;28;20267;-45
2022/08/06 08:48:37;;;;;;;3.38;2.00;;;21.50;99.90;;;;;;5065941;28;20197;-46
2022/08/06 08:51:05;;;;;;;3.00;2.10;;;21.40;99.90;;;;;;5082943;28;20170;-45
2022/08/06 08:53:42;;;;;;;2.20;1.98;;;21.50;99.90;;;;;;5066015;28;20233;-45
2022/08/06 08:56:08;;;;;;;2.97;1.83;;;21.70;99.90;;;;;;5032829;28;20185;-46
2022/08/06 08:58:36;;;;;;;2.90;1.83;;;21.90;99.90;;;;;;5032680;28;20240;-46
2022/08/06 09:01:08;;;;;;;2.53;1.95;;;22.10;99.90;;;;;;5049044;28;20186;-45
2022/08/06 09:03:35;;;;;;;2.60;1.58;;;22.30;99.90;;;;;;5032730;28;20260;-46
2022/08/06 09:06:02;;;;;;;2.67;1.90;;;22.30;99.90;;;;;;5032536;28;20178;-46
2022/08/06 09:08:30;;;;;;;2.30;2.10;;;22.30;99.90;;;;;;5032527;28;20209;-46
2022/08/06 09:10:56;;;;;;;1.98;1.77;;;22.20;99.90;;;;;;5048772;28;20252;-45
2022/08/06 09:13:24;;;;;;;2.47;1.98;;;22.00;99.90;;;;;;5049327;28;20177;-46
2022/08/06 09:15:53;;;;;;;2.97;1.90;;;21.90;99.90;;;;;;5032636;28;20217;-46
2022/08/06 09:18:24;;;;;;;2.15;1.70;;;21.80;99.90;;;;;;5032631;28;20293;-46
2022/08/06 09:20:50;;;;;;;3.28;1.88;;;21.80;99.90;;;;;;5055001;28;20184;-46
2022/08/06 09:23:17;;;;;;;3.30;1.80;;;21.90;99.90;;;;;;5036112;28;20217;-46
2022/08/06 09:25:46;;;;;;;2.35;1.73;;;21.90;99.90;;;;;;5086724;28;20273;-46
2022/08/06 09:28:28;;;;;;;3.67;2.00;;;22.00;99.90;;;;;;5069641;28;20663;-46
2022/08/06 09:31:03;;;;;;;3.55;1.90;;;21.90;99.90;;;;;;5069204;28;20178;-45
2022/08/06 09:33:31;;;;;;;3.75;2.10;;;22.00;99.90;;;;;;5069551;28;20231;-45
2022/08/06 09:36:02;;;;;;;3.15;1.70;;;22.10;99.90;;;;;;5069597;28;20186;-45
2022/08/06 09:38:29;;;;;;;2.80;1.85;;;22.20;99.90;;;;;;5086262;28;20206;-45
2022/08/06 09:41:06;;;;;;;2.45;1.90;;;22.20;99.90;;;;;;5086078;28;20200;-45
2022/08/06 09:43:32;;;;;;;3.22;1.63;;;22.30;99.90;;;;;;5086126;28;20228;-45
2022/08/06 09:45:58;;;;;;;2.60;1.70;;;22.40;99.90;;;;;;5086235;28;20170;-46
2022/08/06 09:48:23;;;;;;;2.22;1.83;;;22.60;99.90;;;;;;5086090;28;20186;-45
2022/08/06 09:50:49;;;;;;;2.83;1.80;;;22.60;99.90;;;;;;5069237;28;20250;-45
2022/08/06 09:53:17;;;;;;;3.30;1.92;;;22.60;99.90;;;;;;5086116;28;20185;-46
2022/08/06 09:55:44;;;;;;;6.85;4.07;;;22.70;99.90;;;;;;5068780;28;20212;-45
2022/08/06 09:58:10;;;;;;;3.10;2.47;;;22.70;99.90;;;;;;5068735;28;20210;-45
2022/08/06 10:00:38;;;;;;;2.85;2.50;;;22.70;99.90;;;;;;5068810;28;20178;-46
2022/08/06 10:03:07;;;;;;;2.17;1.98;;;22.70;99.90;;;;;;5068991;28;20216;-45
2022/08/06 10:05:33;;;;;;;2.58;1.90;;;22.70;99.90;;;;;;5086111;28;20182;-45
2022/08/06 10:08:11;;;;;;;2.60;2.33;;;22.60;99.90;;;;;;5085870;28;20201;-45
2022/08/06 10:10:47;;;;;;;2.55;2.30;;;22.60;99.90;;;;;;5068781;28;20186;-46
2022/08/06 10:13:23;;;;;;;5.10;2.13;;;22.70;99.90;;;;;;5085684;28;20275;-46
2022/08/06 10:15:51;;;;;;;2.38;1.90;;;22.70;99.90;;;;;;5085992;28;20310;-46
2022/08/06 10:18:30;;;;;;;3.70;1.90;;;22.80;99.90;;;;;;5053321;28;20251;-46
2022/08/06 10:21:07;;;;;;;3.47;1.80;;;22.90;99.90;;;;;;5084983;28;20181;-45
2022/08/06 10:23:35;;;;;;;2.10;1.92;;;23.00;99.90;;;;;;5068703;28;20244;-46
2022/08/06 10:26:07;;;;;;;2.58;1.58;;;23.10;99.90;;;;;;5085619;28;20631;-46
2022/08/06 10:28:35;;;;;;;1.92;1.70;;;23.10;99.90;;;;;;5068733;28;20299;-46
2022/08/06 10:31:07;;;;;;;3.25;2.10;;;23.10;99.90;;;;;;5067774;28;20182;-46
2022/08/06 10:33:40;;;;;;;2.20;2.00;;;23.10;99.90;;;;;;5068310;28;20177;-46
2022/08/06 10:36:09;;;;;;;2.15;1.98;;;23.00;99.90;;;;;;5085364;28;20182;-45
2022/08/06 10:38:38;;;;;;;3.08;1.88;;;23.00;99.90;;;;;;5085189;28;20202;-46
2022/08/06 10:41:08;;;;;;;4.22;2.05;;;23.00;99.90;;;;;;5084919;28;20182;-45
2022/08/06 10:43:36;;;;;;;4.07;2.22;;;23.10;99.90;;;;;;5085176;28;20210;-46
2022/08/06 10:46:08;;;;;;;3.10;1.90;;;23.20;99.90;;;;;;5068017;28;20178;-46
2022/08/06 10:48:35;;;;;;;4.78;2.10;;;23.30;99.90;;;;;;5084939;28;20213;-45
2022/08/06 10:51:06;;;;;;;3.22;1.80;;;23.40;99.90;;;;;;5067950;28;20271;-45
2022/08/06 10:53:38;;;;;;;3.15;1.90;;;23.60;99.90;;;;;;5068337;28;20194;-46
2022/08/06 10:56:06;;;;;;;3.08;1.95;;;23.80;99.90;;;;;;5085029;28;20236;-46
2022/08/06 10:58:33;;;;;;;3.08;1.90;;;23.90;99.90;;;;;;5052378;28;20197;-45
2022/08/06 11:01:02;;;;;;;1.67;1.50;;;23.90;99.90;;;;;;5067519;28;20192;-46
2022/08/06 11:03:43;;;;;;;2.00;1.77;;;23.90;99.90;;;;;;5084857;28;20197;-45
2022/08/06 11:06:43;;;;;;;3.20;1.80;;;24.20;99.90;;;;;;5084839;28;20177;-45
2022/08/06 11:09:15;;;;;;;2.00;1.90;;;24.30;99.90;;;;;;5084720;28;20281;-45
2022/08/06 11:11:51;;;;;;;2.38;1.90;;;24.40;99.90;;;;;;5067437;28;20284;-46
2022/08/06 11:14:18;;;;;;;3.83;1.88;;;24.50;99.90;;;;;;5084746;28;20174;-45
2022/08/06 11:16:55;;;;;;;3.75;2.20;;;24.90;99.90;;;;;;5067663;28;20188;-45
2022/08/06 11:19:40;;;;;;;1.95;1.85;;;25.00;99.80;;;;;;5084369;28;20224;-45
2022/08/06 11:22:07;;;;;;;1.75;1.65;;;25.30;99.80;;;;;;5067305;28;20217;-46
2022/08/06 11:24:33;;;;;;;2.83;1.70;;;25.40;99.30;;;;;;5084357;28;20245;-46
2022/08/06 11:26:59;;;;;;;2.90;2.00;;;25.40;98.80;;;;;;5084225;28;20174;-46
2022/08/06 11:29:25;;;;;;;2.00;1.70;;;25.60;99.60;;;;;;5084273;28;20189;-45
2022/08/06 11:31:51;;;;;;;2.42;2.10;;;25.40;99.00;;;;;;5083703;28;20182;-45
2022/08/06 11:34:19;;;;;;;3.22;1.88;;;25.50;99.10;;;;;;5067376;28;20182;-45
2022/08/06 11:36:49;;;;;;;3.88;2.10;;;25.80;99.00;;;;;;5066916;28;20177;-45
2022/08/06 11:39:19;;;;;;;2.80;2.15;;;25.90;98.80;;;;;;5067279;28;20262;-45
2022/08/06 11:42:01;;;;;;;2.75;1.77;;;26.00;97.80;;;;;;5083329;28;20182;-46
2022/08/06 11:44:31;;;;;;;1.80;1.70;;;26.10;97.90;;;;;;5083705;28;20232;-46
2022/08/06 11:47:06;;;;;;;2.63;1.95;;;26.20;97.60;;;;;;5066772;28;20192;-46
2022/08/06 11:49:40;;;;;;;2.15;1.80;;;26.10;97.70;;;;;;5084126;28;20201;-46
2022/08/06 11:52:06;;;;;;;2.05;1.80;;;26.10;97.60;;;;;;5083697;28;20186;-45
2022/08/06 11:54:53;;;;;;;3.50;1.70;;;26.10;97.30;;;;;;5066817;28;20192;-45
2022/08/06 11:57:20;;;;;;;4.20;2.10;;;26.10;97.80;;;;;;5051526;28;20181;-46
2022/08/06 11:59:55;;;;;;;2.67;1.95;;;25.90;97.60;;;;;;5066609;28;20197;-46
2022/08/06 12:02:39;;;;;;;1.80;1.70;;;25.70;97.20;;;;;;5066704;28;20284;-45
2022/08/06 12:05:25;;;;;;;2.95;2.05;;;25.30;97.90;;;;;;5083503;28;20181;-46
2022/08/06 12:08:15;;;;;;;1.95;1.80;;;25.00;98.20;;;;;;5019646;28;20198;-45
2022/08/06 12:11:20;;;;;;;2.53;1.95;;;25.00;98.50;;;;;;5066697;28;20182;-45
2022/08/06 12:13:46;;;;;;;3.90;2.00;;;25.00;98.70;;;;;;5066343;28;20190;-45
2022/08/06 12:16:35;;;;;;;3.08;2.20;;;24.60;98.10;;;;;;5066571;28;20239;-46
2022/08/06 12:19:04;;;;;;;2.92;1.88;;;24.60;98.40;;;;;;5066705;28;20213;-46
2022/08/06 12:21:31;;;;;;;4.63;1.92;;;24.40;98.70;;;;;;5083036;28;20188;-45
2022/08/06 12:23:57;;;;;;;2.15;1.92;;;24.50;98.80;;;;;;5051384;28;20723;-45
2022/08/06 12:26:23;;;;;;;3.05;2.10;;;24.90;99.10;;;;;;5083192;28;20178;-45
2022/08/06 12:28:49;;;;;;;2.13;1.90;;;25.00;97.80;;;;;;5066372;28;20208;-46
2022/08/06 12:31:33;;;;;;;2.20;1.80;;;25.00;98.00;;;;;;5083127;28;20177;-45
2022/08/06 12:33:59;;;;;;;4.05;2.00;;;25.30;97.50;;;;;;5083207;28;20185;-45
2022/08/06 12:36:28;;;;;;;2.95;1.85;;;25.50;97.70;;;;;;5065877;28;20186;-45
2022/08/06 12:38:55;;;;;;;3.20;2.10;;;25.60;97.20;;;;;;5082821;28;20198;-46
2022/08/06 12:41:21;;;;;;;2.10;1.90;;;25.70;96.90;;;;;;5082568;28;20181;-46
2022/08/06 12:43:47;;;;;;;3.88;1.92;;;25.40;96.80;;;;;;5066315;28;20209;-45
2022/08/06 12:46:15;;;;;;;3.05;1.90;;;25.50;97.10;;;;;;5066201;28;20203;-45
2022/08/06 12:48:48;;;;;;;3.60;2.10;;;25.60;97.00;;;;;;5082826;28;20224;-46
2022/08/06 12:51:14;;;;;;;5.50;4.25;;;25.80;96.90;;;;;;5065779;28;20242;-46
2022/08/06 12:54:12;;;;;;;2.45;1.95;;;26.20;97.10;;;;;;5065797;28;20193;-46
2022/08/06 12:56:39;;;;;;;3.20;2.00;;;26.20;96.00;;;;;;5033610;28;20331;-46
2022/08/06 12:59:09;;;;;;;2.40;2.20;;;26.40;96.00;;;;;;5082815;28;20224;-45
2022/08/06 13:01:36;;;;;;;2.33;2.13;;;26.40;96.50;;;;;;5082381;28;20185;-46
2022/08/06 13:04:09;;;;;;;3.83;2.10;;;26.40;95.80;;;;;;5066057;28;20189;-46
2022/08/06 13:06:36;;;;;;;3.28;1.95;;;26.20;95.90;;;;;;5065971;28;20178;-45
2022/08/06 13:09:02;;;;;;;2.50;2.30;;;26.20;96.00;;;;;;5065801;28;20194;-46